Hazard, Kentucky
Current Conditions -  °F | °C
As of 7:53 PM on Saturday 25 Oct 2014 (Local Time) from KJKL Reporting Station
Clear Clear  
Wind Chill: 61°   Ceiling: Unl
Heat Index: 61°   Visibility: 10mi
Dew Point: 52°   Wind: 0mph
Humidity: 72%   Direction: NA
Pressure: 29.99"   Gusts: NA
Location:  37.25°N, 83.19°W
Report Text: KJKL 252353Z AUTO 00000KT 10SM CLR 16/11 A2999 RMK AO2 SLP152 T01610111 10206 20161 53002
Loading
Personal Weather Stations






























Interactive Weather Map
Tropical Storm Tracking
New forecast layout! Learn more

10-Day Weather Forecast

Advertisements
Track Severe Weather on mobile